createdAt,value
2019-05-06T00:01:53.986Z,101052.75
2019-05-06T00:04:24.730Z,101052.14
2019-05-06T00:06:54.807Z,101050.19
2019-05-06T00:09:24.122Z,101047.29
2019-05-06T00:11:54.277Z,101041.38
2019-05-06T00:14:23.669Z,101041.58
2019-05-06T00:16:54.554Z,101035.08
2019-05-06T00:19:24.674Z,101037.44
2019-05-06T00:21:54.082Z,101035.44
2019-05-06T00:24:25.099Z,101030.68
2019-05-06T00:27:13.996Z,101034.31
2019-05-06T00:29:43.864Z,101030.02
2019-05-06T00:32:14.918Z,101035.01
2019-05-06T00:34:43.685Z,101031.58
2019-05-06T00:37:14.473Z,101031.69
2019-05-06T00:40:04.513Z,101030.48
2019-05-06T00:42:34.931Z,101031.02
2019-05-06T00:45:04.627Z,101027.96
2019-05-06T00:47:33.968Z,101029.81
2019-05-06T00:50:04.247Z,101028.08
2019-05-06T00:52:33.999Z,101037.86
2019-05-06T00:55:04.162Z,101033.89
2019-05-06T00:57:45.210Z,101030.05
2019-05-06T01:00:16.851Z,101027.52
2019-05-06T01:02:45.420Z,101027.59
2019-05-06T01:05:14.484Z,101029.90
2019-05-06T01:07:44.107Z,101033.07
2019-05-06T01:10:14.298Z,101036.70
2019-05-06T01:12:44.665Z,101038.06
2019-05-06T01:15:18.376Z,101034.63
2019-05-06T01:17:46.891Z,101043.58
2019-05-06T01:20:15.755Z,101043.69
2019-05-06T01:22:44.361Z,101039.80
2019-05-06T01:25:14.224Z,101036.36
2019-05-06T01:27:44.434Z,101040.33
2019-05-06T01:30:13.814Z,101037.34
2019-05-06T01:32:43.584Z,101036.02
2019-05-06T01:35:14.100Z,101036.13
2019-05-06T01:37:44.431Z,101031.75
2019-05-06T01:40:27.047Z,101043.23
2019-05-06T01:43:00.216Z,101041.53
2019-05-06T01:45:28.823Z,101040.66
2019-05-06T01:47:57.398Z,101042.44
2019-05-06T01:50:25.978Z,101038.92
2019-05-06T01:52:54.635Z,101041.11
2019-05-06T01:55:23.888Z,101040.66
2019-05-06T01:57:54.531Z,101041.98
2019-05-06T02:00:23.687Z,101040.25
2019-05-06T02:02:54.595Z,101042.44
2019-05-06T02:05:24.233Z,101036.77
2019-05-06T02:07:54.891Z,101041.68
2019-05-06T02:10:23.859Z,101042.62
2019-05-06T02:12:54.116Z,101042.73
2019-05-06T02:15:23.884Z,101038.80
2019-05-06T02:17:54.991Z,101038.46
2019-05-06T02:20:24.653Z,101036.80
2019-05-06T02:22:54.914Z,101036.45
2019-05-06T02:25:25.121Z,101040.49
2019-05-06T02:27:54.246Z,101041.92
2019-05-06T02:30:36.348Z,101045.02
2019-05-06T02:33:11.279Z,101045.99
2019-05-06T02:35:45.425Z,101041.61
2019-05-06T02:38:32.654Z,101043.01
2019-05-06T02:40:55.580Z,101040.47
2019-05-06T02:43:24.140Z,101047.14
2019-05-06T02:45:53.232Z,101038.84
2019-05-06T02:48:29.670Z,101044.20
2019-05-06T02:50:59.877Z,101046.42
2019-05-06T02:53:28.551Z,101041.55
2019-05-06T02:55:57.147Z,101041.97
2019-05-06T02:58:25.721Z,101039.27
2019-05-06T03:00:54.301Z,101038.73
2019-05-06T03:03:23.378Z,101031.64
2019-05-06T03:05:53.205Z,101035.53
2019-05-06T03:08:23.657Z,101037.27
2019-05-06T03:10:53.564Z,101035.02
2019-05-06T03:13:23.609Z,101039.80
2019-05-06T03:15:54.076Z,101033.09
2019-05-06T03:18:23.586Z,101033.66
2019-05-06T03:20:54.099Z,101031.98
2019-05-06T03:23:24.327Z,101027.15
2019-05-06T03:25:53.413Z,101021.97
2019-05-06T03:28:22.620Z,101024.27
2019-05-06T03:30:55.903Z,101023.84
2019-05-06T03:33:44.607Z,101018.59
2019-05-06T03:36:06.113Z,101021.20
2019-05-06T03:38:22.999Z,101019.52
2019-05-06T03:40:53.770Z,101015.69
2019-05-06T03:43:23.263Z,101021.98
2019-05-06T03:45:59.806Z,101014.13
2019-05-06T03:48:33.086Z,101016.07
2019-05-06T03:51:00.344Z,101017.52
2019-05-06T03:53:33.398Z,101022.44
2019-05-06T03:56:03.344Z,101019.00
2019-05-06T03:58:34.705Z,101016.42
2019-05-06T04:01:03.832Z,101015.63
2019-05-06T04:03:46.534Z,101021.53
2019-05-06T04:06:05.605Z,101024.30
2019-05-06T04:08:35.173Z,101017.95
2019-05-06T04:11:03.857Z,101012.89
2019-05-06T04:13:33.363Z,101012.76
2019-05-06T04:16:04.075Z,101020.98
2019-05-06T04:18:34.428Z,101018.11
2019-05-06T04:21:23.691Z,101017.89
2019-05-06T04:24:04.845Z,101018.62
2019-05-06T04:26:35.402Z,101021.92
2019-05-06T04:29:04.245Z,101025.30
2019-05-06T04:31:33.693Z,101019.41
2019-05-06T04:34:12.890Z,101019.73
2019-05-06T04:36:33.833Z,101016.08
2019-05-06T04:39:04.117Z,101020.75
2019-05-06T04:41:34.066Z,101024.22
2019-05-06T04:44:03.427Z,101019.15
2019-05-06T04:46:34.867Z,101028.16
2019-05-06T04:49:04.000Z,101025.59
2019-05-06T04:51:37.010Z,101027.91
2019-05-06T04:54:04.843Z,101033.40
2019-05-06T04:56:34.516Z,101033.95
2019-05-06T04:59:06.282Z,101035.08
2019-05-06T05:01:34.357Z,101035.16
2019-05-06T05:04:03.714Z,101036.20
2019-05-06T05:06:32.935Z,101039.90
2019-05-06T05:09:02.781Z,101036.09
2019-05-06T05:11:36.455Z,101030.09
2019-05-06T05:14:06.673Z,101031.43
2019-05-06T05:16:39.608Z,101028.86
2019-05-06T05:19:12.824Z,101035.11
2019-05-06T05:21:42.874Z,101022.86
2019-05-06T05:24:12.053Z,101033.27
2019-05-06T05:26:45.108Z,101031.61
2019-05-06T05:29:12.391Z,101029.98
2019-05-06T05:31:43.543Z,101034.89
2019-05-06T05:34:12.744Z,101025.75
2019-05-06T05:36:42.622Z,101029.43
2019-05-06T05:39:12.517Z,101034.53
2019-05-06T05:41:42.901Z,101036.38
2019-05-06T05:44:13.507Z,101036.63
2019-05-06T05:46:43.824Z,101041.69
2019-05-06T05:49:24.602Z,101045.83
2019-05-06T05:51:53.654Z,101044.09
2019-05-06T05:54:23.125Z,101050.33
2019-05-06T05:56:52.927Z,101047.75
2019-05-06T05:59:23.152Z,101049.53
2019-05-06T06:01:53.082Z,101047.62
2019-05-06T06:04:22.490Z,101051.46
2019-05-06T06:06:51.999Z,101048.11
2019-05-06T06:09:22.620Z,101047.84
2019-05-06T06:11:53.676Z,101048.95
2019-05-06T06:14:43.724Z,101043.98
2019-05-06T06:17:26.245Z,101051.92
2019-05-06T06:19:59.671Z,101051.88
2019-05-06T06:22:30.018Z,101050.50
2019-05-06T06:24:58.659Z,101055.11
2019-05-06T06:27:28.862Z,101042.48
2019-05-06T06:29:57.537Z,101049.38
2019-05-06T06:32:27.756Z,101054.58
2019-05-06T06:35:11.131Z,101049.30
2019-05-06T06:37:38.959Z,101048.47
2019-05-06T06:40:10.073Z,101051.81
2019-05-06T06:42:38.662Z,101051.83
2019-05-06T06:45:07.711Z,101048.52
2019-05-06T06:47:36.486Z,101045.73
2019-05-06T06:50:05.357Z,101046.00
2019-05-06T06:52:33.923Z,101033.11
2019-05-06T06:55:02.735Z,101037.43
2019-05-06T06:57:38.678Z,101028.99
2019-05-06T07:00:22.279Z,101030.88
2019-05-06T07:03:04.654Z,101033.17
2019-05-06T07:05:34.874Z,101027.30
2019-05-06T07:08:03.619Z,101028.83
2019-05-06T07:10:43.997Z,101027.03
2019-05-06T07:13:13.738Z,101028.94
2019-05-06T07:15:42.749Z,101027.84
2019-05-06T07:18:13.517Z,101026.30
2019-05-06T07:20:52.672Z,101028.28
2019-05-06T07:23:32.787Z,101034.23
2019-05-06T07:26:03.043Z,101036.52
2019-05-06T07:28:32.678Z,101036.72
2019-05-06T07:31:17.578Z,101032.63
2019-05-06T07:33:33.586Z,101031.58
2019-05-06T07:36:02.339Z,101032.94
2019-05-06T07:38:32.631Z,101024.39
2019-05-06T07:41:04.544Z,101024.70
2019-05-06T07:43:35.006Z,101024.09
2019-05-06T07:46:08.887Z,101022.33
2019-05-06T07:48:37.489Z,101011.86
2019-05-06T07:51:06.072Z,101016.31
2019-05-06T07:53:34.695Z,101017.09
2019-05-06T07:56:03.742Z,101018.30
2019-05-06T07:58:32.543Z,101017.55
2019-05-06T08:01:02.605Z,101014.89
2019-05-06T08:03:32.981Z,101013.60
2019-05-06T08:06:02.742Z,101012.83
2019-05-06T08:08:33.657Z,101007.20
2019-05-06T08:11:02.716Z,101008.78
2019-05-06T08:13:32.301Z,101016.12
2019-05-06T08:16:02.269Z,101018.06
2019-05-06T08:18:32.982Z,101009.61
2019-05-06T08:21:02.926Z,101014.98
2019-05-06T08:23:35.902Z,101012.41
2019-05-06T08:26:12.546Z,101008.79
2019-05-06T08:28:41.036Z,101014.62
2019-05-06T08:31:05.362Z,101004.97
2019-05-06T08:33:33.999Z,101000.53
2019-05-06T08:36:11.476Z,101006.19
2019-05-06T08:38:53.204Z,100999.89
2019-05-06T08:41:22.749Z,101003.44
2019-05-06T08:43:52.844Z,100998.02
2019-05-06T08:46:23.488Z,100996.58
2019-05-06T08:48:52.613Z,100995.20
2019-05-06T08:51:26.014Z,100991.47
2019-05-06T08:53:56.253Z,100989.06
2019-05-06T08:56:25.025Z,100986.37
2019-05-06T08:58:53.590Z,100988.70
2019-05-06T09:01:23.833Z,100982.78
2019-05-06T09:04:06.408Z,100978.23
2019-05-06T09:06:29.724Z,100978.58
2019-05-06T09:08:56.577Z,100985.38
2019-05-06T09:11:25.692Z,100977.66
2019-05-06T09:13:53.779Z,100984.39
2019-05-06T09:16:22.538Z,100977.92
2019-05-06T09:18:53.241Z,100979.29
2019-05-06T09:21:22.625Z,100978.84
2019-05-06T09:23:53.191Z,100972.59
2019-05-06T09:26:23.286Z,100976.45
2019-05-06T09:28:53.574Z,100977.98
2019-05-06T09:31:23.846Z,100976.91
2019-05-06T09:33:57.149Z,100972.20
2019-05-06T09:36:39.822Z,100975.15
2019-05-06T09:38:56.060Z,100977.41
2019-05-06T09:41:24.634Z,100973.15
2019-05-06T09:43:53.214Z,100964.17
2019-05-06T09:46:23.069Z,100965.54
2019-05-06T09:49:09.624Z,100965.05
2019-05-06T09:51:38.287Z,100963.44
2019-05-06T09:54:24.798Z,100962.15
2019-05-06T09:56:58.386Z,100967.73
2019-05-06T09:59:27.083Z,100975.69
2019-05-06T10:01:55.720Z,100965.66
2019-05-06T10:04:24.314Z,100967.28
2019-05-06T10:06:57.195Z,100962.55
2019-05-06T10:09:24.946Z,100976.33
2019-05-06T10:11:53.755Z,100969.48
2019-05-06T10:14:23.407Z,100965.17
2019-05-06T10:16:52.559Z,100968.63
2019-05-06T10:19:22.575Z,100961.98
2019-05-06T10:21:53.038Z,100967.02
2019-05-06T10:24:21.892Z,100966.11
2019-05-06T10:26:52.453Z,100950.59
2019-05-06T10:29:25.434Z,100951.83
2019-05-06T10:31:58.733Z,100946.17
2019-05-06T10:34:27.315Z,100949.70
2019-05-06T10:37:12.718Z,100957.41
2019-05-06T10:39:35.698Z,100961.47
2019-05-06T10:42:13.463Z,100958.75
2019-05-06T10:44:48.023Z,100955.50
2019-05-06T10:47:16.655Z,100939.16
2019-05-06T10:49:45.217Z,100941.13
2019-05-06T10:52:15.422Z,100941.48
2019-05-06T10:54:44.104Z,100934.85
2019-05-06T10:57:14.435Z,100941.98
2019-05-06T10:59:43.013Z,100935.13
2019-05-06T11:02:29.410Z,100937.63
2019-05-06T11:04:58.075Z,100936.57
2019-05-06T11:07:31.405Z,100929.39
2019-05-06T11:09:56.927Z,100929.59
2019-05-06T11:12:25.503Z,100923.15
2019-05-06T11:14:55.748Z,100935.78
2019-05-06T11:17:24.552Z,100933.84
2019-05-06T11:19:53.374Z,100946.69
2019-05-06T11:22:24.637Z,100945.13
2019-05-06T11:24:52.341Z,100940.80
2019-05-06T11:27:28.762Z,100938.51
2019-05-06T11:29:53.147Z,100934.47
2019-05-06T11:32:41.174Z,100935.59
2019-05-06T11:35:16.183Z,100937.73
2019-05-06T11:37:51.959Z,100939.03
2019-05-06T11:40:19.768Z,100943.34
2019-05-06T11:42:48.282Z,100939.69
2019-05-06T11:45:16.973Z,100937.02
2019-05-06T11:47:45.599Z,100928.66
2019-05-06T11:50:14.549Z,100932.74
2019-05-06T11:52:43.619Z,100934.52
2019-05-06T11:55:27.543Z,100934.86
2019-05-06T11:57:44.874Z,100931.02
2019-05-06T12:00:15.586Z,100926.83
2019-05-06T12:02:48.013Z,100924.66
2019-05-06T12:05:14.973Z,100929.46
2019-05-06T12:08:00.397Z,100928.81
2019-05-06T12:10:14.186Z,100928.45
2019-05-06T12:12:42.765Z,100934.16
2019-05-06T12:15:12.552Z,100939.22
2019-05-06T12:17:42.207Z,100933.17
2019-05-06T12:20:13.142Z,100939.02
2019-05-06T12:22:42.447Z,100940.40
2019-05-06T12:25:15.096Z,100928.31
2019-05-06T12:27:44.624Z,100930.27
2019-05-06T12:30:23.176Z,100937.77
2019-05-06T12:33:03.199Z,100932.33
2019-05-06T12:35:32.865Z,100941.20
2019-05-06T12:38:06.804Z,100942.97
2019-05-06T12:40:33.399Z,100940.34
2019-05-06T12:43:22.510Z,100939.68
2019-05-06T12:45:53.103Z,100934.94
2019-05-06T12:48:23.511Z,100937.55
2019-05-06T12:50:52.547Z,100930.45
2019-05-06T12:53:23.150Z,100920.02
2019-05-06T12:55:52.058Z,100925.70
2019-05-06T12:58:23.251Z,100920.54
2019-05-06T13:00:53.968Z,100904.82
2019-05-06T13:03:23.433Z,100913.92
2019-05-06T13:05:52.204Z,100914.05
2019-05-06T13:08:27.364Z,100914.58
2019-05-06T13:10:52.592Z,100900.20
2019-05-06T13:13:22.466Z,100908.56
2019-05-06T13:15:52.790Z,100902.03
2019-05-06T13:18:23.177Z,100902.55
2019-05-06T13:20:52.791Z,100898.88
2019-05-06T13:23:38.228Z,100895.52
2019-05-06T13:26:06.835Z,100889.92
2019-05-06T13:28:37.105Z,100887.63
2019-05-06T13:31:17.313Z,100895.58
2019-05-06T13:33:47.292Z,100878.22
2019-05-06T13:36:16.076Z,100882.41
2019-05-06T13:38:44.688Z,100882.62
2019-05-06T13:41:13.268Z,100886.59
2019-05-06T13:43:43.772Z,100888.31
2019-05-06T13:46:17.006Z,100887.44
2019-05-06T13:49:02.917Z,100885.78
2019-05-06T13:51:45.826Z,100881.01
2019-05-06T13:54:16.101Z,100889.30
2019-05-06T13:56:44.894Z,100891.98
2019-05-06T13:59:13.624Z,100884.11
2019-05-06T14:01:44.332Z,100878.23
2019-05-06T14:04:14.540Z,100881.96
2019-05-06T14:06:43.432Z,100878.80
2019-05-06T14:09:27.945Z,100879.53
2019-05-06T14:11:42.522Z,100882.68
2019-05-06T14:14:12.557Z,100873.66
2019-05-06T14:16:42.662Z,100880.86
2019-05-06T14:19:13.173Z,100875.19
2019-05-06T14:21:43.172Z,100876.16
2019-05-06T14:24:13.220Z,100884.16
2019-05-06T14:26:58.195Z,100880.77
2019-05-06T14:29:33.959Z,100869.80
2019-05-06T14:32:02.903Z,100870.55
2019-05-06T14:34:32.440Z,100864.13
2019-05-06T14:37:01.416Z,100874.73
2019-05-06T14:39:49.150Z,100873.93
2019-05-06T14:42:04.754Z,100872.06
2019-05-06T14:44:33.325Z,100877.87
2019-05-06T14:47:06.379Z,100870.92
2019-05-06T14:49:34.960Z,100878.39
2019-05-06T14:52:03.622Z,100872.94
2019-05-06T14:54:33.198Z,100867.11
2019-05-06T14:57:06.534Z,100865.94
2019-05-06T14:59:35.253Z,100872.58
2019-05-06T15:02:03.840Z,100864.19
2019-05-06T15:04:32.735Z,100869.67
2019-05-06T15:07:02.120Z,100863.54
2019-05-06T15:09:32.912Z,100873.89
2019-05-06T15:12:02.366Z,100874.64
2019-05-06T15:14:33.075Z,100878.61
2019-05-06T15:17:02.253Z,100875.56
2019-05-06T15:19:31.072Z,100873.48
2019-05-06T15:21:59.676Z,100876.66
2019-05-06T15:24:28.283Z,100875.53
2019-05-06T15:26:56.859Z,100877.45
2019-05-06T15:29:25.468Z,100878.13
2019-05-06T15:31:55.735Z,100879.66
2019-05-06T15:34:25.979Z,100883.75
2019-05-06T15:36:56.169Z,100875.56
2019-05-06T15:39:39.264Z,100880.47
2019-05-06T15:42:07.889Z,100873.28
2019-05-06T15:44:36.697Z,100873.66
2019-05-06T15:47:05.300Z,100869.00
2019-05-06T15:49:33.880Z,100870.72
2019-05-06T15:52:03.612Z,100866.78
2019-05-06T15:54:32.404Z,100872.30
2019-05-06T15:57:00.889Z,100868.64
2019-05-06T15:59:33.296Z,100861.94
2019-05-06T16:02:01.961Z,100865.16
2019-05-06T16:04:32.505Z,100873.33
2019-05-06T16:07:02.863Z,100875.31
2019-05-06T16:09:32.824Z,100874.42
2019-05-06T16:12:03.107Z,100873.81
2019-05-06T16:14:34.107Z,100870.89
2019-05-06T16:17:02.078Z,100868.58
2019-05-06T16:19:33.069Z,100866.28
2019-05-06T16:22:03.922Z,100860.16
2019-05-06T16:24:35.184Z,100866.99
2019-05-06T16:27:03.537Z,100863.34
2019-05-06T16:29:37.668Z,100862.58
2019-05-06T16:32:09.998Z,100867.45
2019-05-06T16:34:38.568Z,100870.73
2019-05-06T16:37:07.176Z,100865.97
2019-05-06T16:39:35.759Z,100868.73
2019-05-06T16:42:04.355Z,100864.10
2019-05-06T16:44:32.932Z,100858.95
2019-05-06T16:47:02.948Z,100860.14
2019-05-06T16:49:33.156Z,100859.27
2019-05-06T16:52:02.662Z,100853.63
2019-05-06T16:54:34.576Z,100858.97
2019-05-06T16:57:15.980Z,100854.92
2019-05-06T16:59:44.587Z,100853.47
2019-05-06T17:02:14.963Z,100845.41
2019-05-06T17:04:45.173Z,100841.09
2019-05-06T17:07:13.776Z,100841.19
2019-05-06T17:09:42.982Z,100834.75
2019-05-06T17:12:12.786Z,100834.75
2019-05-06T17:14:42.856Z,100837.08
2019-05-06T17:17:11.548Z,100837.81
2019-05-06T17:19:42.048Z,100832.26
2019-05-06T17:22:12.353Z,100842.36
2019-05-06T17:24:42.212Z,100841.50
2019-05-06T17:27:12.071Z,100843.09
2019-05-06T17:29:48.368Z,100841.18
2019-05-06T17:32:32.829Z,100844.97
2019-05-06T17:35:02.613Z,100847.75
2019-05-06T17:37:52.675Z,100843.00
2019-05-06T17:40:23.147Z,100847.37
2019-05-06T17:42:53.305Z,100848.52
2019-05-06T17:45:40.251Z,100841.45
2019-05-06T17:48:12.690Z,100839.98
2019-05-06T17:50:42.064Z,100842.51
2019-05-06T17:53:12.294Z,100844.55
2019-05-06T17:55:43.145Z,100840.98
2019-05-06T17:58:12.970Z,100843.89
2019-05-06T18:00:42.904Z,100848.00
2019-05-06T18:03:11.771Z,100847.96
2019-05-06T18:05:42.185Z,100843.27
2019-05-06T18:08:12.780Z,100842.76
2019-05-06T18:10:42.663Z,100840.39
2019-05-06T18:13:12.562Z,100846.73
2019-05-06T18:15:43.066Z,100841.08
2019-05-06T18:18:13.008Z,100838.97
2019-05-06T18:20:42.723Z,100836.16
2019-05-06T18:23:12.899Z,100835.52
2019-05-06T18:25:43.031Z,100837.45
2019-05-06T18:28:12.369Z,100836.22
2019-05-06T18:30:41.433Z,100836.73
2019-05-06T18:33:10.120Z,100839.36
2019-05-06T18:35:38.905Z,100844.70
2019-05-06T18:38:07.803Z,100840.43
2019-05-06T18:40:36.696Z,100837.46
2019-05-06T18:43:06.116Z,100835.39
2019-05-06T18:45:36.157Z,100842.89
2019-05-06T18:48:05.397Z,100839.30
2019-05-06T18:50:34.013Z,100840.98
2019-05-06T18:53:03.278Z,100839.98
2019-05-06T18:55:33.322Z,100845.16
2019-05-06T18:58:02.820Z,100847.17
2019-05-06T19:00:32.094Z,100847.89
2019-05-06T19:03:02.647Z,100852.11
2019-05-06T19:05:42.721Z,100839.91
2019-05-06T19:08:12.730Z,100853.01
2019-05-06T19:10:42.461Z,100850.55
2019-05-06T19:13:12.649Z,100853.81
2019-05-06T19:15:41.561Z,100860.23
2019-05-06T19:18:12.803Z,100857.64
2019-05-06T19:20:42.467Z,100864.92
2019-05-06T19:23:13.054Z,100861.98
2019-05-06T19:25:42.863Z,100866.46
2019-05-06T19:28:14.200Z,100864.47
2019-05-06T19:30:43.341Z,100879.77
2019-05-06T19:33:12.418Z,100876.34
2019-05-06T19:35:42.828Z,100874.27
2019-05-06T19:38:12.486Z,100878.36
2019-05-06T19:40:41.429Z,100872.66
2019-05-06T19:43:12.266Z,100873.34
2019-05-06T19:45:42.265Z,100881.75
2019-05-06T19:48:13.381Z,100878.30
2019-05-06T19:50:42.586Z,100879.36
2019-05-06T19:53:12.424Z,100879.01
2019-05-06T19:55:45.433Z,100887.49
2019-05-06T19:58:12.986Z,100888.44
2019-05-06T20:00:42.052Z,100883.48
2019-05-06T20:03:12.348Z,100883.28
2019-05-06T20:05:55.053Z,100884.97
2019-05-06T20:08:28.808Z,100886.31
2019-05-06T20:10:59.303Z,100886.70
2019-05-06T20:13:27.988Z,100885.75
2019-05-06T20:15:56.797Z,100895.84
2019-05-06T20:18:25.692Z,100885.16
2019-05-06T20:20:54.947Z,100889.17
2019-05-06T20:23:24.495Z,100885.16
2019-05-06T20:25:53.256Z,100884.30
2019-05-06T20:28:22.846Z,100883.44
2019-05-06T20:30:52.881Z,100894.98
2019-05-06T20:33:22.079Z,100888.78
2019-05-06T20:35:52.551Z,100905.28
2019-05-06T20:38:23.255Z,100917.28
2019-05-06T20:40:51.627Z,100922.88
2019-05-06T20:43:23.772Z,100929.23
2019-05-06T20:45:52.195Z,100919.63
2019-05-06T20:48:23.326Z,100918.73
2019-05-06T20:50:52.389Z,100921.69
2019-05-06T20:53:22.621Z,100920.34
2019-05-06T20:55:53.203Z,100928.61
2019-05-06T20:58:22.942Z,100922.78
2019-05-06T21:00:52.224Z,100927.94
2019-05-06T21:03:22.202Z,100926.67
2019-05-06T21:05:50.967Z,100926.03
2019-05-06T21:08:21.944Z,100928.30
2019-05-06T21:10:52.715Z,100930.67
2019-05-06T21:13:29.562Z,100931.32
2019-05-06T21:15:50.568Z,100930.56
2019-05-06T21:18:19.153Z,100929.70
2019-05-06T21:20:47.728Z,100928.84
2019-05-06T21:23:16.305Z,100930.75
2019-05-06T21:25:44.884Z,100930.34
2019-05-06T21:28:13.455Z,100927.39
2019-05-06T21:30:42.928Z,100934.63
2019-05-06T21:33:12.425Z,100930.52
2019-05-06T21:35:42.405Z,100928.80
2019-05-06T21:38:12.108Z,100927.10
2019-05-06T21:40:43.119Z,100926.23
2019-05-06T21:43:13.033Z,100931.09
2019-05-06T21:45:42.501Z,100931.09
2019-05-06T21:48:13.391Z,100926.70
2019-05-06T21:50:42.632Z,100924.44
2019-05-06T21:53:14.456Z,100923.97
2019-05-06T21:55:41.728Z,100923.11
2019-05-06T21:58:12.427Z,100926.70
2019-05-06T22:00:43.620Z,100927.57
2019-05-06T22:03:13.363Z,100927.10
2019-05-06T22:05:42.242Z,100929.01
2019-05-06T22:08:12.886Z,100926.88
2019-05-06T22:10:42.213Z,100925.08
2019-05-06T22:13:14.327Z,100925.55
2019-05-06T22:15:42.093Z,100923.28
2019-05-06T22:18:12.497Z,100931.28
2019-05-06T22:20:59.389Z,100928.69
2019-05-06T22:23:29.605Z,100925.66
2019-05-06T22:26:10.855Z,100912.05
2019-05-06T22:28:28.510Z,100919.25
2019-05-06T22:30:57.084Z,100916.59
2019-05-06T22:33:25.638Z,100913.56
2019-05-06T22:35:57.182Z,100910.14
2019-05-06T22:38:25.681Z,100920.39
2019-05-06T22:40:54.254Z,100917.73
2019-05-06T22:43:22.831Z,100915.06
2019-05-06T22:45:53.301Z,100918.66
2019-05-06T22:48:22.267Z,100918.59
2019-05-06T22:50:52.927Z,100915.53
2019-05-06T22:53:22.167Z,100918.59
2019-05-06T22:55:51.960Z,100908.88
2019-05-06T22:58:22.657Z,100912.30
2019-05-06T23:00:53.746Z,100915.25
2019-05-06T23:03:24.180Z,100920.04
2019-05-06T23:05:52.779Z,100921.20
2019-05-06T23:08:21.412Z,100924.22
2019-05-06T23:10:50.166Z,100922.34
2019-05-06T23:13:18.741Z,100925.77
2019-05-06T23:15:47.333Z,100925.20
2019-05-06T23:18:15.900Z,100919.80
2019-05-06T23:20:44.510Z,100920.27
2019-05-06T23:23:13.087Z,100920.27
2019-05-06T23:25:43.566Z,100924.73
2019-05-06T23:28:12.017Z,100923.47
2019-05-06T23:30:42.779Z,100917.67
2019-05-06T23:33:11.770Z,100919.87
2019-05-06T23:35:43.713Z,100923.86
2019-05-06T23:38:47.880Z,100915.41
2019-05-06T23:41:52.940Z,100920.27
2019-05-06T23:44:57.664Z,100920.80
2019-05-06T23:48:02.664Z,100921.02
2019-05-06T23:51:07.597Z,100906.33
2019-05-06T23:54:12.772Z,100910.72
2019-05-06T23:56:45.882Z,100913.09
2019-05-06T23:59:18.637Z,100912.41
